createdAt,value
2019-04-03T00:02:26.839Z,11.40
2019-04-03T00:04:58.552Z,10.40
2019-04-03T00:07:30.409Z,11.93
2019-04-03T00:10:02.576Z,12.03
2019-04-03T00:12:34.473Z,11.37
2019-04-03T00:15:06.578Z,12.47
2019-04-03T00:17:38.360Z,11.77
2019-04-03T00:20:10.146Z,11.70
2019-04-03T00:22:41.908Z,12.27
2019-04-03T00:25:13.630Z,10.67
2019-04-03T00:27:45.559Z,13.03
2019-04-03T00:30:17.255Z,11.27
2019-04-03T00:32:49.043Z,11.53
2019-04-03T00:35:23.112Z,11.27
2019-04-03T00:37:54.374Z,10.80
2019-04-03T00:40:26.205Z,11.67
2019-04-03T00:42:57.865Z,19.90
2019-04-03T00:45:29.677Z,18.30
2019-04-03T00:48:01.599Z,14.53
2019-04-03T00:50:33.358Z,13.13
2019-04-03T00:53:05.266Z,12.60
2019-04-03T00:55:36.942Z,14.03
2019-04-03T00:58:36.407Z,24.90
2019-04-03T01:01:09.204Z,13.67
2019-04-03T01:03:40.938Z,13.43
2019-04-03T01:06:12.693Z,12.00
2019-04-03T01:08:44.430Z,13.40
2019-04-03T01:11:16.214Z,12.00
2019-04-03T01:13:48.080Z,13.07
2019-04-03T01:16:19.860Z,13.97
2019-04-03T01:18:51.648Z,12.57
2019-04-03T01:21:28.220Z,11.13
2019-04-03T01:24:00.152Z,11.77
2019-04-03T01:26:32.130Z,12.13
2019-04-03T01:29:03.899Z,12.13
2019-04-03T01:31:35.672Z,12.00
2019-04-03T01:34:07.500Z,12.93
2019-04-03T01:36:39.208Z,12.73
2019-04-03T01:39:10.909Z,12.03
2019-04-03T01:41:42.679Z,12.67
2019-04-03T01:44:14.368Z,12.70
2019-04-03T01:46:45.955Z,12.70
2019-04-03T01:49:17.569Z,11.97
2019-04-03T01:51:49.385Z,13.50
2019-04-03T01:54:21.618Z,11.97
2019-04-03T01:56:53.694Z,12.90
2019-04-03T01:59:25.419Z,14.40
2019-04-03T02:01:57.378Z,14.17
2019-04-03T02:04:29.066Z,12.77
2019-04-03T02:07:00.850Z,12.10
2019-04-03T02:09:32.464Z,15.77
2019-04-03T02:12:04.417Z,13.93
2019-04-03T02:14:36.233Z,13.40
2019-04-03T02:17:09.090Z,13.20
2019-04-03T02:19:40.976Z,14.03
2019-04-03T02:22:12.574Z,13.43
2019-04-03T02:24:44.447Z,12.83
2019-04-03T02:27:16.139Z,13.40
2019-04-03T02:29:47.925Z,14.20
2019-04-03T02:32:21.396Z,12.40
2019-04-03T02:34:53.016Z,12.77
2019-04-03T02:37:25.039Z,13.47
2019-04-03T02:40:00.107Z,14.30
2019-04-03T02:42:30.037Z,13.40
2019-04-03T02:45:02.342Z,13.17
2019-04-03T02:47:34.744Z,15.60
2019-04-03T02:50:06.800Z,14.97
2019-04-03T02:52:38.603Z,14.57
2019-04-03T02:55:10.364Z,13.77
2019-04-03T02:57:42.139Z,13.80
2019-04-03T03:00:13.885Z,12.90
2019-04-03T03:02:46.212Z,12.83
2019-04-03T03:05:18.101Z,12.73
2019-04-03T03:07:49.901Z,18.30
2019-04-03T03:10:21.585Z,24.80
2019-04-03T03:12:53.358Z,24.93
2019-04-03T03:15:24.996Z,24.37
2019-04-03T03:17:56.690Z,23.50
2019-04-03T03:20:28.434Z,23.30
2019-04-03T03:23:00.974Z,26.13
2019-04-03T03:25:34.294Z,21.57
2019-04-03T03:28:07.320Z,19.73
2019-04-03T03:30:46.777Z,23.07
2019-04-03T03:33:28.858Z,20.57
2019-04-03T03:35:48.886Z,16.40
2019-04-03T03:38:19.780Z,18.30
2019-04-03T03:40:51.555Z,13.70
2019-04-03T03:43:23.448Z,15.53
2019-04-03T03:45:55.104Z,17.17
2019-04-03T03:48:26.710Z,21.40
2019-04-03T03:50:58.678Z,18.60
2019-04-03T03:53:30.534Z,16.27
2019-04-03T03:56:02.966Z,15.17
2019-04-03T03:58:35.076Z,16.70
2019-04-03T04:01:06.791Z,15.03
2019-04-03T04:03:41.096Z,19.63
2019-04-03T04:06:11.815Z,21.33
2019-04-03T04:08:45.165Z,20.87
2019-04-03T04:11:17.039Z,21.70
2019-04-03T04:13:49.750Z,19.33
2019-04-03T04:16:21.995Z,21.53
2019-04-03T04:18:57.004Z,24.87
2019-04-03T04:21:27.247Z,26.30
2019-04-03T04:23:59.003Z,26.83
2019-04-03T04:26:31.606Z,31.70
2019-04-03T04:29:03.981Z,34.73
2019-04-03T04:31:35.686Z,28.90
2019-04-03T04:34:07.463Z,26.43
2019-04-03T04:36:39.184Z,22.80
2019-04-03T04:39:10.894Z,23.07
2019-04-03T04:41:42.650Z,19.30
2019-04-03T04:44:15.201Z,21.43
2019-04-03T04:46:47.050Z,23.23
2019-04-03T04:49:18.768Z,25.83
2019-04-03T04:51:50.470Z,23.70
2019-04-03T04:54:22.178Z,23.60
2019-04-03T04:56:54.006Z,21.77
2019-04-03T04:59:25.948Z,19.50
2019-04-03T05:01:57.707Z,23.87
2019-04-03T05:04:29.409Z,23.53
2019-04-03T05:07:01.000Z,21.43
2019-04-03T05:09:34.361Z,18.70
2019-04-03T05:12:06.018Z,20.60
2019-04-03T05:14:37.637Z,20.37
2019-04-03T05:17:09.351Z,23.23
2019-04-03T05:19:41.041Z,34.90
2019-04-03T05:22:12.771Z,38.37
2019-04-03T05:24:45.443Z,22.13
2019-04-03T05:27:17.054Z,18.57
2019-04-03T05:29:48.756Z,14.30
2019-04-03T05:32:20.465Z,16.43
2019-04-03T05:34:52.459Z,16.67
2019-04-03T05:37:24.317Z,19.10
2019-04-03T05:39:56.241Z,19.03
2019-04-03T05:42:29.217Z,16.07
2019-04-03T05:45:03.842Z,16.23
2019-04-03T05:47:34.728Z,15.00
2019-04-03T05:50:06.744Z,16.47
2019-04-03T05:52:38.508Z,15.87
2019-04-03T05:55:10.272Z,19.03
2019-04-03T05:57:44.939Z,29.37
2019-04-03T06:00:15.543Z,23.63
2019-04-03T06:02:47.400Z,21.40
2019-04-03T06:05:19.624Z,21.03
2019-04-03T06:07:51.767Z,19.93
2019-04-03T06:10:23.643Z,15.00
2019-04-03T06:12:55.364Z,13.83
2019-04-03T06:15:27.233Z,15.47
2019-04-03T06:17:59.009Z,13.77
2019-04-03T06:20:30.714Z,13.53
2019-04-03T06:23:02.683Z,13.57
2019-04-03T06:25:35.343Z,15.23
2019-04-03T06:28:07.039Z,15.17
2019-04-03T06:30:38.642Z,14.10
2019-04-03T06:33:10.546Z,14.53
2019-04-03T06:35:44.664Z,21.00
2019-04-03T06:38:15.731Z,14.67
2019-04-03T06:40:47.507Z,15.33
2019-04-03T06:43:19.513Z,15.83
2019-04-03T06:45:51.160Z,14.67
2019-04-03T06:48:22.903Z,15.03
2019-04-03T06:50:54.688Z,15.03
2019-04-03T06:53:28.574Z,15.47
2019-04-03T06:55:59.851Z,16.13
2019-04-03T06:58:38.105Z,14.53
2019-04-03T07:01:05.642Z,13.47
2019-04-03T07:03:37.416Z,15.53
2019-04-03T07:06:09.110Z,17.23
2019-04-03T07:08:41.176Z,13.93
2019-04-03T07:11:22.842Z,14.83
2019-04-03T07:13:46.471Z,14.37
2019-04-03T07:16:18.240Z,14.63
2019-04-03T07:18:50.129Z,14.13
2019-04-03T07:21:22.815Z,16.40
2019-04-03T07:23:55.529Z,17.53
2019-04-03T07:26:27.545Z,19.97
2019-04-03T07:28:59.543Z,18.57
2019-04-03T07:31:31.681Z,18.60
2019-04-03T07:34:03.967Z,18.77
2019-04-03T07:36:35.804Z,21.43
2019-04-03T07:39:10.931Z,19.73
2019-04-03T07:41:42.216Z,22.53
2019-04-03T07:44:14.286Z,16.53
2019-04-03T07:46:46.114Z,16.17
2019-04-03T07:49:17.837Z,16.57
2019-04-03T07:51:49.839Z,15.83
2019-04-03T07:54:22.522Z,17.30
2019-04-03T07:56:56.422Z,15.60
2019-04-03T07:59:28.249Z,14.50
2019-04-03T08:02:00.121Z,15.97
2019-04-03T08:04:32.086Z,14.63
2019-04-03T08:07:03.948Z,15.50
2019-04-03T08:09:35.760Z,14.87
2019-04-03T08:12:07.559Z,16.27
2019-04-03T08:14:41.204Z,16.43
2019-04-03T08:17:12.761Z,15.57
2019-04-03T08:19:45.416Z,15.40
2019-04-03T08:22:18.095Z,15.20
2019-04-03T08:24:52.781Z,14.87
2019-04-03T08:27:24.361Z,14.27
2019-04-03T08:29:56.330Z,15.03
2019-04-03T08:32:28.037Z,13.90
2019-04-03T08:35:02.375Z,14.50
2019-04-03T08:37:33.573Z,13.33
2019-04-03T08:40:05.869Z,16.03
2019-04-03T08:42:38.645Z,14.63
2019-04-03T08:45:11.117Z,14.37
2019-04-03T08:47:46.142Z,13.80
2019-04-03T08:50:16.722Z,13.37
2019-04-03T08:52:48.519Z,13.60
2019-04-03T08:55:20.467Z,15.00
2019-04-03T08:57:53.258Z,14.03
2019-04-03T09:00:25.356Z,13.83
2019-04-03T09:02:57.168Z,13.93
2019-04-03T09:05:28.944Z,13.33
2019-04-03T09:08:00.848Z,14.17
2019-04-03T09:10:36.497Z,15.43
2019-04-03T09:13:16.856Z,12.37
2019-04-03T09:15:40.117Z,13.50
2019-04-03T09:18:11.842Z,13.80
2019-04-03T09:20:44.221Z,12.67
2019-04-03T09:23:16.293Z,14.57
2019-04-03T09:25:48.209Z,14.40
2019-04-03T09:28:20.920Z,13.43
2019-04-03T09:30:54.111Z,14.70
2019-04-03T09:33:27.991Z,13.80
2019-04-03T09:35:59.927Z,13.00
2019-04-03T09:38:35.294Z,13.70
2019-04-03T09:41:05.761Z,14.07
2019-04-03T09:43:39.389Z,14.13
2019-04-03T09:46:10.858Z,12.97
2019-04-03T09:48:42.637Z,13.40
2019-04-03T09:51:14.319Z,13.50
2019-04-03T09:53:46.301Z,13.60
2019-04-03T09:56:17.996Z,14.03
2019-04-03T09:58:49.664Z,14.67
2019-04-03T10:01:21.735Z,14.10
2019-04-03T10:03:55.064Z,13.90
2019-04-03T10:06:26.941Z,14.80
2019-04-03T10:08:58.736Z,15.00
2019-04-03T10:11:30.443Z,15.23
2019-04-03T10:14:02.381Z,15.20
2019-04-03T10:16:35.641Z,14.67
2019-04-03T10:19:07.675Z,18.53
2019-04-03T10:21:39.559Z,38.07
2019-04-03T10:24:11.211Z,14.57
2019-04-03T10:26:43.010Z,14.70
2019-04-03T10:29:14.718Z,15.30
2019-04-03T10:31:46.330Z,16.47
2019-04-03T10:34:18.153Z,15.87
2019-04-03T10:36:49.978Z,15.73
2019-04-03T10:39:21.778Z,14.70
2019-04-03T10:41:53.858Z,15.60
2019-04-03T10:44:25.696Z,17.33
2019-04-03T10:46:57.699Z,14.90
2019-04-03T10:49:31.554Z,21.43
2019-04-03T10:52:03.161Z,14.93
2019-04-03T10:54:37.406Z,14.77
2019-04-03T10:57:08.524Z,19.87
2019-04-03T10:59:40.330Z,16.63
2019-04-03T11:02:12.039Z,20.93
2019-04-03T11:04:44.723Z,20.40
2019-04-03T11:07:16.577Z,17.90
2019-04-03T11:09:48.754Z,16.87
2019-04-03T11:12:20.446Z,20.57
2019-04-03T11:14:52.182Z,17.10
2019-04-03T11:17:25.722Z,16.97
2019-04-03T11:19:57.491Z,17.03
2019-04-03T11:22:39.709Z,17.83
2019-04-03T11:25:03.054Z,20.40
2019-04-03T11:27:41.931Z,16.97
2019-04-03T11:30:11.382Z,16.63
2019-04-03T11:32:42.686Z,18.03
2019-04-03T11:35:14.962Z,16.53
2019-04-03T11:37:46.776Z,15.63
2019-04-03T11:40:18.803Z,17.83
2019-04-03T11:42:50.767Z,15.67
2019-04-03T11:45:22.566Z,27.07
2019-04-03T11:47:54.560Z,16.57
2019-04-03T11:50:26.592Z,15.77
2019-04-03T11:53:01.480Z,14.93
2019-04-03T11:55:32.141Z,15.93
2019-04-03T11:58:03.813Z,15.53
2019-04-03T12:00:43.679Z,18.37
2019-04-03T12:03:15.680Z,17.30
2019-04-03T12:05:48.254Z,15.33
2019-04-03T12:08:20.073Z,15.63
2019-04-03T12:10:51.867Z,16.17
2019-04-03T12:13:23.806Z,18.10
2019-04-03T12:15:58.129Z,16.93
2019-04-03T12:18:29.505Z,14.57
2019-04-03T12:21:03.058Z,18.07
2019-04-03T12:23:34.910Z,13.93
2019-04-03T12:26:07.047Z,17.33
2019-04-03T12:28:38.778Z,16.17
2019-04-03T12:31:10.581Z,15.53
2019-04-03T12:33:52.398Z,14.87
2019-04-03T12:36:15.968Z,15.80
2019-04-03T12:38:47.749Z,14.67
2019-04-03T12:41:19.449Z,16.13
2019-04-03T12:43:51.309Z,14.77
2019-04-03T12:46:37.505Z,17.33
2019-04-03T12:49:10.636Z,17.75
2019-04-03T12:51:42.402Z,15.63
2019-04-03T12:54:14.198Z,18.63
2019-04-03T12:56:46.843Z,17.10
2019-04-03T12:59:20.418Z,17.07
2019-04-03T13:01:51.933Z,16.93
2019-04-03T13:04:25.754Z,27.60
2019-04-03T13:06:57.250Z,16.50
2019-04-03T13:09:29.724Z,16.57
2019-04-03T13:12:01.832Z,15.80
2019-04-03T13:14:33.662Z,15.33
2019-04-03T13:17:05.898Z,15.13
2019-04-03T13:19:37.985Z,23.90
2019-04-03T13:22:11.175Z,14.10
2019-04-03T13:24:44.350Z,15.07
2019-04-03T13:27:16.778Z,15.30
2019-04-03T13:29:48.545Z,15.40
2019-04-03T13:32:22.189Z,15.27
2019-04-03T13:34:53.844Z,15.37
2019-04-03T13:37:25.719Z,23.87
2019-04-03T13:40:00.207Z,17.70
2019-04-03T13:42:32.422Z,96.83
2019-04-03T13:45:04.162Z,20.20
2019-04-03T13:47:35.956Z,18.20
2019-04-03T13:50:09.529Z,16.17
2019-04-03T13:52:47.546Z,16.57
2019-04-03T13:55:14.575Z,18.27
2019-04-03T13:57:46.927Z,18.77
2019-04-03T14:00:22.990Z,27.93
2019-04-03T14:02:56.039Z,16.13
2019-04-03T14:05:29.611Z,38.37
2019-04-03T14:08:00.475Z,44.07
2019-04-03T14:10:34.019Z,21.03
2019-04-03T14:13:05.890Z,16.80
2019-04-03T14:15:38.118Z,27.03
2019-04-03T14:18:11.046Z,33.13
2019-04-03T14:20:42.762Z,41.13
2019-04-03T14:23:14.549Z,26.20
2019-04-03T14:25:46.267Z,22.73
2019-04-03T14:28:18.457Z,32.77
2019-04-03T14:30:50.622Z,25.20
2019-04-03T14:33:24.881Z,19.57
2019-04-03T14:35:55.960Z,17.10
2019-04-03T14:38:29.041Z,19.73
2019-04-03T14:41:01.991Z,24.83
2019-04-03T14:43:34.563Z,19.23
2019-04-03T14:46:06.959Z,25.23
2019-04-03T14:48:38.688Z,24.87
2019-04-03T14:51:11.427Z,20.47
2019-04-03T14:53:45.027Z,17.57
2019-04-03T14:56:16.740Z,19.10
2019-04-03T14:58:48.497Z,22.83
2019-04-03T15:01:20.874Z,23.33
2019-04-03T15:03:52.901Z,53.97
2019-04-03T15:06:26.761Z,31.23
2019-04-03T15:08:58.610Z,24.07
2019-04-03T15:11:30.818Z,30.77
2019-04-03T15:14:03.206Z,19.13
2019-04-03T15:16:35.253Z,28.00
2019-04-03T15:19:07.213Z,36.43
2019-04-03T15:21:38.949Z,26.90
2019-04-03T15:24:11.451Z,27.23
2019-04-03T15:26:44.293Z,20.43
2019-04-03T15:29:16.100Z,23.60
2019-04-03T15:31:48.108Z,22.90
2019-04-03T15:34:19.952Z,25.17
2019-04-03T15:36:51.767Z,23.23
2019-04-03T15:39:24.044Z,35.17
2019-04-03T15:41:56.634Z,20.57
2019-04-03T15:44:28.893Z,23.13
2019-04-03T15:47:01.163Z,17.30
2019-04-03T15:49:34.044Z,19.02
2019-04-03T15:52:06.012Z,19.67
2019-04-03T15:54:37.721Z,22.77
2019-04-03T15:57:09.444Z,25.60
2019-04-03T15:59:41.045Z,22.85
2019-04-03T16:02:13.344Z,21.37
2019-04-03T16:04:45.161Z,19.57
2019-04-03T16:07:17.190Z,23.83
2019-04-03T16:09:50.682Z,22.93
2019-04-03T16:12:23.741Z,23.60
2019-04-03T16:14:55.519Z,31.62
2019-04-03T16:17:28.305Z,37.55
2019-04-03T16:19:59.921Z,83.03
2019-04-03T16:22:32.284Z,51.70
2019-04-03T16:25:04.091Z,114.17
2019-04-03T16:27:36.372Z,53.00
2019-04-03T16:30:08.444Z,91.28
2019-04-03T16:32:40.172Z,40.88
2019-04-03T16:35:13.730Z,291.73
2019-04-03T16:37:45.372Z,26.82
2019-04-03T16:40:17.195Z,28.95
2019-04-03T16:42:52.723Z,28.47
2019-04-03T16:45:22.365Z,23.53
2019-04-03T16:47:55.216Z,25.20
2019-04-03T16:50:28.006Z,48.13
2019-04-03T16:53:00.703Z,143.90
2019-04-03T16:55:32.690Z,191.33
2019-04-03T16:58:04.499Z,110.30
2019-04-03T17:00:38.563Z,100.70
2019-04-03T17:03:09.573Z,48.67
2019-04-03T17:05:43.326Z,54.87
2019-04-03T17:08:14.704Z,31.10
2019-04-03T17:10:46.442Z,65.20
2019-04-03T17:13:18.880Z,43.80
2019-04-03T17:15:51.554Z,103.57
2019-04-03T17:18:23.197Z,247.53
2019-04-03T17:20:56.386Z,222.27
2019-04-03T17:23:28.283Z,125.90
2019-04-03T17:26:00.232Z,68.10
2019-04-03T17:28:32.461Z,78.80
2019-04-03T17:31:04.448Z,56.03
2019-04-03T17:33:36.507Z,35.17
2019-04-03T17:36:08.264Z,66.13
2019-04-03T17:38:40.588Z,80.07
2019-04-03T17:41:12.393Z,93.87
2019-04-03T17:43:44.154Z,55.77
2019-04-03T17:46:17.614Z,43.13
2019-04-03T17:48:49.319Z,32.63
2019-04-03T17:51:21.080Z,37.57
2019-04-03T17:53:52.875Z,31.53
2019-04-03T17:56:24.599Z,34.30
2019-04-03T17:58:56.316Z,33.13
2019-04-03T18:01:28.018Z,29.40
2019-04-03T18:03:59.710Z,28.83
2019-04-03T18:06:31.401Z,28.27
2019-04-03T18:09:04.229Z,37.77
2019-04-03T18:11:37.433Z,74.17
2019-04-03T18:14:09.105Z,38.03
2019-04-03T18:16:41.776Z,37.97
2019-04-03T18:19:13.467Z,31.17
2019-04-03T18:21:46.890Z,36.33
2019-04-03T18:24:18.596Z,32.17
2019-04-03T18:26:50.303Z,24.87
2019-04-03T18:29:24.327Z,25.87
2019-04-03T18:31:55.297Z,22.13
2019-04-03T18:34:26.913Z,23.43
2019-04-03T18:36:58.628Z,21.27
2019-04-03T18:39:30.397Z,22.07
2019-04-03T18:42:02.546Z,21.33
2019-04-03T18:44:34.301Z,19.00
2019-04-03T18:47:06.759Z,23.23
2019-04-03T18:49:40.075Z,28.67
2019-04-03T18:52:11.849Z,16.70
2019-04-03T18:54:43.693Z,28.57
2019-04-03T18:57:17.120Z,38.10
2019-04-03T18:59:48.881Z,27.93
2019-04-03T19:02:20.662Z,31.23
2019-04-03T19:05:01.713Z,32.63
2019-04-03T19:07:25.738Z,22.20
2019-04-03T19:10:06.865Z,21.73
2019-04-03T19:12:35.743Z,20.53
2019-04-03T19:15:04.348Z,17.97
2019-04-03T19:17:37.772Z,19.93
2019-04-03T19:20:11.277Z,17.07
2019-04-03T19:22:42.854Z,17.83
2019-04-03T19:25:15.933Z,19.80
2019-04-03T19:27:49.798Z,21.33
2019-04-03T19:30:21.024Z,18.70
2019-04-03T19:32:52.859Z,19.30
2019-04-03T19:35:27.849Z,21.70
2019-04-03T19:37:58.452Z,17.97
2019-04-03T19:40:30.258Z,18.47
2019-04-03T19:43:02.011Z,17.00
2019-04-03T19:45:33.794Z,17.80
2019-04-03T19:48:05.461Z,18.33
2019-04-03T19:50:37.222Z,18.13
2019-04-03T19:53:09.005Z,17.93
2019-04-03T19:55:40.680Z,16.73
2019-04-03T19:58:12.345Z,18.57
2019-04-03T20:00:44.116Z,20.07
2019-04-03T20:03:15.888Z,20.10
2019-04-03T20:05:50.101Z,17.90
2019-04-03T20:08:20.944Z,19.10
2019-04-03T20:10:52.622Z,16.73
2019-04-03T20:13:24.540Z,18.50
2019-04-03T20:15:56.228Z,17.17
2019-04-03T20:18:27.825Z,18.07
2019-04-03T20:20:59.436Z,18.93
2019-04-03T20:23:31.140Z,17.30
2019-04-03T20:26:04.712Z,17.47
2019-04-03T20:28:36.946Z,17.87
2019-04-03T20:31:08.705Z,20.27
2019-04-03T20:33:42.152Z,31.03
2019-04-03T20:36:16.513Z,28.93
2019-04-03T20:38:47.188Z,28.50
2019-04-03T20:41:18.962Z,24.23
2019-04-03T20:43:50.753Z,20.73
2019-04-03T20:46:23.867Z,29.53
2019-04-03T20:48:58.451Z,45.57
2019-04-03T20:51:29.502Z,37.03
2019-04-03T20:54:01.283Z,25.80
2019-04-03T20:56:34.207Z,26.73
2019-04-03T20:59:06.018Z,29.23
2019-04-03T21:01:37.718Z,37.67
2019-04-03T21:04:09.427Z,113.17
2019-04-03T21:06:41.438Z,136.80
2019-04-03T21:09:13.230Z,61.53
2019-04-03T21:11:45.009Z,41.03
2019-04-03T21:14:16.730Z,41.73
2019-04-03T21:16:48.540Z,50.60
2019-04-03T21:19:21.435Z,35.57
2019-04-03T21:21:53.712Z,39.63
2019-04-03T21:24:25.404Z,47.93
2019-04-03T21:26:57.115Z,40.23
2019-04-03T21:29:28.835Z,39.50
2019-04-03T21:32:00.529Z,30.20
2019-04-03T21:34:33.221Z,112.70
2019-04-03T21:37:04.968Z,69.67
2019-04-03T21:39:36.702Z,41.90
2019-04-03T21:42:08.434Z,39.07
2019-04-03T21:44:40.220Z,41.30
2019-04-03T21:47:12.254Z,42.90
2019-04-03T21:49:43.896Z,46.23
2019-04-03T21:52:15.614Z,44.63
2019-04-03T21:54:47.331Z,42.07
2019-04-03T21:57:19.126Z,43.60
2019-04-03T21:59:50.681Z,36.80
2019-04-03T22:02:22.408Z,27.77
2019-04-03T22:04:55.194Z,42.60
2019-04-03T22:07:28.540Z,36.87
2019-04-03T22:10:01.902Z,31.17
2019-04-03T22:12:34.827Z,34.37
2019-04-03T22:15:08.243Z,37.73
2019-04-03T22:17:40.417Z,32.47
2019-04-03T22:20:12.885Z,70.43
2019-04-03T22:22:45.054Z,72.33
2019-04-03T22:25:17.241Z,41.77
2019-04-03T22:27:49.441Z,32.73
2019-04-03T22:30:21.784Z,36.67
2019-04-03T22:32:55.817Z,44.50
2019-04-03T22:35:28.337Z,38.43
2019-04-03T22:38:02.161Z,26.53
2019-04-03T22:40:34.549Z,33.60
2019-04-03T22:43:07.318Z,30.03
2019-04-03T22:45:39.543Z,43.57
2019-04-03T22:48:11.801Z,28.70
2019-04-03T22:50:43.955Z,29.07
2019-04-03T22:53:16.225Z,26.33
2019-04-03T22:55:48.489Z,29.00
2019-04-03T22:58:21.516Z,27.80
2019-04-03T23:00:53.802Z,26.50
2019-04-03T23:03:25.973Z,30.00
2019-04-03T23:05:58.149Z,24.37
2019-04-03T23:08:30.417Z,26.03
2019-04-03T23:11:03.752Z,24.70
2019-04-03T23:13:36.272Z,44.17
2019-04-03T23:16:09.624Z,66.07
2019-04-03T23:18:42.640Z,55.33
2019-04-03T23:21:15.042Z,36.70
2019-04-03T23:23:48.839Z,37.43
2019-04-03T23:26:21.054Z,32.83
2019-04-03T23:28:53.449Z,27.93
2019-04-03T23:31:25.645Z,27.93
2019-04-03T23:33:57.865Z,29.43
2019-04-03T23:36:30.092Z,26.10
2019-04-03T23:39:02.288Z,26.57
2019-04-03T23:41:36.658Z,30.57
2019-04-03T23:44:11.028Z,27.87
2019-04-03T23:46:45.479Z,30.23
2019-04-03T23:49:18.127Z,23.50
2019-04-03T23:51:51.716Z,24.50
2019-04-03T23:54:23.835Z,24.80
2019-04-03T23:56:56.022Z,26.93
2019-04-03T23:59:28.415Z,26.90
